createdAt,value
2022-09-06T00:00:07.859Z,67.00
2022-09-06T00:01:07.845Z,66.98
2022-09-06T00:02:07.842Z,67.01
2022-09-06T00:03:07.944Z,67.24
2022-09-06T00:04:11.821Z,67.43
2022-09-06T00:05:08.808Z,67.46
2022-09-06T00:06:07.806Z,67.46
2022-09-06T00:07:07.790Z,67.43
2022-09-06T00:08:07.812Z,67.42
2022-09-06T00:09:07.771Z,67.38
2022-09-06T00:10:07.766Z,67.44
2022-09-06T00:11:07.759Z,67.51
2022-09-06T00:12:07.747Z,67.56
2022-09-06T00:13:07.746Z,67.52
2022-09-06T00:14:07.713Z,67.52
2022-09-06T00:15:07.706Z,67.60
2022-09-06T00:16:07.776Z,67.57
2022-09-06T00:17:07.657Z,67.58
2022-09-06T00:18:07.651Z,67.53
2022-09-06T00:19:07.659Z,67.32
2022-09-06T00:20:07.625Z,67.28
2022-09-06T00:21:08.369Z,67.30
2022-09-06T00:22:07.597Z,67.34
2022-09-06T00:23:07.621Z,67.30
2022-09-06T00:24:07.595Z,67.30
2022-09-06T00:25:07.584Z,67.33
2022-09-06T00:26:07.560Z,67.52
2022-09-06T00:27:07.549Z,67.43
2022-09-06T00:28:07.537Z,67.47
2022-09-06T00:29:07.541Z,67.04
2022-09-06T00:30:07.509Z,66.99
2022-09-06T00:31:07.527Z,67.15
2022-09-06T00:32:07.480Z,67.37
2022-09-06T00:33:07.479Z,67.76
2022-09-06T00:34:07.479Z,68.15
2022-09-06T00:35:07.463Z,68.39
2022-09-06T00:36:07.445Z,68.70
2022-09-06T00:37:07.427Z,68.90
2022-09-06T00:38:07.436Z,68.97
2022-09-06T00:39:07.407Z,68.85
2022-09-06T00:40:07.453Z,68.39
2022-09-06T00:41:07.393Z,67.92
2022-09-06T00:42:07.369Z,67.97
2022-09-06T00:43:07.377Z,68.10
2022-09-06T00:44:07.340Z,68.10
2022-09-06T00:45:07.354Z,68.51
2022-09-06T00:46:07.368Z,68.51
2022-09-06T00:47:07.320Z,68.22
2022-09-06T00:48:07.311Z,68.09
2022-09-06T00:49:07.313Z,68.17
2022-09-06T00:50:07.286Z,68.22
2022-09-06T00:51:07.270Z,68.53
2022-09-06T00:52:07.255Z,68.33
2022-09-06T00:53:07.249Z,68.23
2022-09-06T00:54:07.234Z,68.12
2022-09-06T00:55:07.242Z,68.09
2022-09-06T00:56:07.201Z,67.99
2022-09-06T00:57:07.203Z,67.88
2022-09-06T00:58:07.192Z,67.99
2022-09-06T00:59:07.162Z,68.03
2022-09-06T01:00:07.176Z,67.85
2022-09-06T01:01:07.207Z,67.78
2022-09-06T01:02:07.210Z,67.70
2022-09-06T01:03:07.133Z,67.42
2022-09-06T01:04:07.114Z,67.36
2022-09-06T01:05:07.121Z,67.16
2022-09-06T01:06:07.085Z,67.14
2022-09-06T01:07:07.087Z,67.26
2022-09-06T01:08:07.067Z,67.32
2022-09-06T01:09:07.055Z,67.49
2022-09-06T01:10:07.057Z,67.37
2022-09-06T01:11:07.037Z,67.53
2022-09-06T01:12:07.025Z,67.75
2022-09-06T01:13:07.016Z,67.76
2022-09-06T01:14:07.003Z,67.49
2022-09-06T01:15:06.986Z,67.60
2022-09-06T01:16:07.042Z,67.34
2022-09-06T01:17:06.958Z,67.51
2022-09-06T01:18:06.949Z,67.81
2022-09-06T01:19:06.940Z,67.82
2022-09-06T01:20:06.930Z,67.50
2022-09-06T01:21:06.939Z,67.53
2022-09-06T01:22:06.906Z,67.66
2022-09-06T01:23:06.898Z,67.85
2022-09-06T01:24:06.879Z,67.62
2022-09-06T01:25:06.877Z,67.68
2022-09-06T01:26:06.879Z,66.97
2022-09-06T01:27:06.848Z,66.54
2022-09-06T01:28:06.842Z,66.95
2022-09-06T01:29:06.819Z,66.80
2022-09-06T01:30:06.813Z,66.81
2022-09-06T01:31:06.881Z,66.90
2022-09-06T01:32:06.812Z,67.05
2022-09-06T01:33:06.778Z,67.41
2022-09-06T01:34:06.766Z,67.09
2022-09-06T01:35:06.761Z,67.08
2022-09-06T01:36:06.741Z,67.03
2022-09-06T01:37:10.194Z,67.08
2022-09-06T01:38:06.722Z,67.35
2022-09-06T01:39:06.710Z,67.72
2022-09-06T01:40:06.736Z,68.96
2022-09-06T01:41:06.691Z,69.79
2022-09-06T01:42:06.686Z,70.12
2022-09-06T01:43:10.663Z,70.55
2022-09-06T01:44:06.641Z,70.64
2022-09-06T01:45:06.653Z,70.35
2022-09-06T01:46:06.647Z,70.37
2022-09-06T01:47:06.632Z,70.72
2022-09-06T01:48:06.597Z,70.93
2022-09-06T01:49:06.593Z,70.92
2022-09-06T01:50:06.578Z,71.00
2022-09-06T01:51:06.563Z,71.25
2022-09-06T01:52:06.561Z,71.44
2022-09-06T01:53:06.558Z,71.58
2022-09-06T01:54:06.526Z,71.41
2022-09-06T01:55:06.523Z,71.65
2022-09-06T01:56:06.518Z,71.44
2022-09-06T01:57:06.507Z,71.29
2022-09-06T01:58:06.495Z,70.50
2022-09-06T01:59:06.475Z,69.75
2022-09-06T02:00:06.465Z,69.61
2022-09-06T02:01:06.485Z,69.31
2022-09-06T02:02:06.491Z,69.26
2022-09-06T02:03:06.448Z,69.32
2022-09-06T02:04:06.419Z,69.79
2022-09-06T02:05:06.418Z,69.77
2022-09-06T02:06:06.385Z,69.91
2022-09-06T02:07:06.392Z,69.79
2022-09-06T02:08:06.387Z,69.46
2022-09-06T02:09:06.358Z,69.01
2022-09-06T02:10:06.342Z,68.77
2022-09-06T02:11:06.332Z,68.67
2022-09-06T02:12:06.327Z,68.43
2022-09-06T02:13:06.361Z,68.37
2022-09-06T02:14:06.297Z,68.25
2022-09-06T02:15:06.288Z,68.34
2022-09-06T02:16:06.276Z,68.42
2022-09-06T02:17:06.346Z,68.63
2022-09-06T02:18:06.277Z,68.69
2022-09-06T02:19:06.250Z,68.73
2022-09-06T02:20:06.233Z,68.81
2022-09-06T02:21:06.228Z,68.61
2022-09-06T02:22:06.212Z,68.35
2022-09-06T02:23:06.206Z,67.67
2022-09-06T02:24:06.202Z,67.51
2022-09-06T02:25:06.186Z,67.32
2022-09-06T02:26:06.159Z,67.25
2022-09-06T02:27:06.150Z,67.26
2022-09-06T02:28:06.147Z,67.25
2022-09-06T02:29:06.151Z,67.20
2022-09-06T02:30:06.115Z,67.40
2022-09-06T02:31:06.152Z,67.43
2022-09-06T02:32:06.081Z,67.89
2022-09-06T02:33:06.073Z,68.01
2022-09-06T02:34:06.090Z,68.08
2022-09-06T02:35:06.059Z,68.34
2022-09-06T02:36:06.102Z,68.38
2022-09-06T02:37:06.072Z,68.53
2022-09-06T02:38:06.042Z,69.12
2022-09-06T02:39:06.067Z,69.11
2022-09-06T02:40:06.129Z,69.36
2022-09-06T02:41:06.001Z,69.20
2022-09-06T02:42:06.011Z,69.25
2022-09-06T02:43:05.972Z,69.28
2022-09-06T02:44:05.958Z,69.30
2022-09-06T02:45:05.963Z,69.33
2022-09-06T02:46:06.015Z,69.44
2022-09-06T02:47:05.919Z,69.41
2022-09-06T02:48:05.913Z,69.52
2022-09-06T02:49:05.887Z,69.72
2022-09-06T02:50:05.906Z,69.72
2022-09-06T02:51:05.880Z,69.90
2022-09-06T02:52:05.873Z,69.96
2022-09-06T02:53:05.846Z,69.93
2022-09-06T02:54:05.846Z,70.13
2022-09-06T02:55:05.827Z,70.00
2022-09-06T02:56:05.834Z,69.94
2022-09-06T02:57:05.806Z,69.90
2022-09-06T02:58:05.795Z,69.99
2022-09-06T02:59:05.777Z,70.21
2022-09-06T03:00:05.766Z,70.05
2022-09-06T03:01:05.832Z,70.15
2022-09-06T03:02:05.794Z,70.05
2022-09-06T03:03:05.726Z,70.19
2022-09-06T03:04:05.728Z,70.17
2022-09-06T03:05:05.711Z,70.21
2022-09-06T03:06:05.706Z,70.41
2022-09-06T03:07:05.698Z,70.39
2022-09-06T03:08:05.677Z,70.40
2022-09-06T03:09:05.661Z,70.51
2022-09-06T03:10:05.653Z,70.44
2022-09-06T03:11:05.645Z,70.50
2022-09-06T03:12:05.641Z,70.63
2022-09-06T03:13:05.631Z,70.74
2022-09-06T03:14:05.609Z,70.75
2022-09-06T03:15:05.590Z,70.78
2022-09-06T03:16:05.583Z,70.81
2022-09-06T03:17:05.663Z,70.86
2022-09-06T03:18:05.583Z,70.84
2022-09-06T03:19:05.545Z,70.83
2022-09-06T03:20:05.541Z,70.86
2022-09-06T03:21:05.562Z,70.82
2022-09-06T03:22:05.525Z,70.89
2022-09-06T03:23:05.512Z,71.01
2022-09-06T03:24:05.502Z,70.97
2022-09-06T03:25:05.481Z,70.76
2022-09-06T03:26:05.473Z,70.98
2022-09-06T03:27:05.458Z,70.98
2022-09-06T03:28:05.463Z,70.84
2022-09-06T03:29:05.431Z,70.74
2022-09-06T03:30:05.422Z,70.72
2022-09-06T03:31:05.462Z,70.74
2022-09-06T03:32:05.405Z,70.80
2022-09-06T03:33:05.384Z,70.95
2022-09-06T03:34:09.091Z,71.07
2022-09-06T03:35:06.365Z,71.25
2022-09-06T03:36:05.354Z,71.26
2022-09-06T03:37:05.346Z,71.39
2022-09-06T03:38:05.331Z,71.32
2022-09-06T03:39:05.335Z,71.16
2022-09-06T03:40:05.337Z,71.14
2022-09-06T03:41:05.297Z,71.14
2022-09-06T03:42:05.288Z,71.03
2022-09-06T03:43:05.275Z,71.03
2022-09-06T03:44:05.285Z,71.12
2022-09-06T03:45:05.246Z,71.13
2022-09-06T03:46:05.273Z,71.31
2022-09-06T03:47:05.215Z,71.37
2022-09-06T03:48:05.217Z,71.42
2022-09-06T03:49:05.211Z,71.42
2022-09-06T03:50:05.186Z,71.55
2022-09-06T03:51:05.179Z,71.64
2022-09-06T03:52:05.184Z,71.87
2022-09-06T03:53:05.159Z,71.97
2022-09-06T03:54:05.166Z,72.22
2022-09-06T03:55:05.150Z,72.37
2022-09-06T03:56:05.119Z,72.49
2022-09-06T03:57:05.113Z,72.48
2022-09-06T03:58:05.103Z,72.49
2022-09-06T03:59:05.099Z,72.57
2022-09-06T04:00:05.105Z,72.63
2022-09-06T04:01:05.146Z,72.79
2022-09-06T04:02:05.094Z,72.84
2022-09-06T04:03:05.038Z,72.91
2022-09-06T04:04:05.060Z,72.88
2022-09-06T04:05:05.029Z,72.87
2022-09-06T04:06:05.019Z,72.82
2022-09-06T04:07:05.001Z,72.78
2022-09-06T04:08:04.990Z,72.83
2022-09-06T04:09:04.976Z,72.90
2022-09-06T04:10:04.990Z,72.95
2022-09-06T04:11:04.956Z,73.03
2022-09-06T04:12:04.944Z,73.14
2022-09-06T04:13:04.922Z,73.13
2022-09-06T04:14:04.921Z,73.20
2022-09-06T04:15:04.906Z,73.23
2022-09-06T04:16:04.910Z,73.28
2022-09-06T04:17:04.882Z,73.31
2022-09-06T04:18:08.993Z,73.29
2022-09-06T04:19:04.856Z,73.31
2022-09-06T04:20:04.855Z,73.39
2022-09-06T04:21:04.852Z,73.42
2022-09-06T04:22:04.829Z,73.49
2022-09-06T04:23:04.808Z,73.59
2022-09-06T04:24:04.794Z,73.66
2022-09-06T04:25:04.789Z,73.71
2022-09-06T04:26:04.804Z,73.79
2022-09-06T04:27:04.764Z,73.81
2022-09-06T04:28:04.754Z,73.94
2022-09-06T04:29:04.733Z,74.07
2022-09-06T04:30:04.735Z,74.11
2022-09-06T04:31:05.353Z,74.20
2022-09-06T04:32:04.790Z,74.34
2022-09-06T04:33:04.695Z,74.50
2022-09-06T04:34:04.683Z,74.61
2022-09-06T04:35:04.669Z,74.58
2022-09-06T04:36:04.684Z,74.65
2022-09-06T04:37:04.654Z,74.77
2022-09-06T04:38:04.645Z,74.90
2022-09-06T04:39:04.624Z,75.03
2022-09-06T04:40:04.691Z,75.23
2022-09-06T04:41:04.619Z,75.27
2022-09-06T04:42:04.595Z,75.34
2022-09-06T04:43:04.587Z,75.40
2022-09-06T04:44:04.566Z,75.45
2022-09-06T04:45:04.558Z,75.56
2022-09-06T04:46:04.609Z,75.75
2022-09-06T04:47:09.178Z,75.95
2022-09-06T04:48:05.516Z,75.93
2022-09-06T04:49:04.514Z,75.90
2022-09-06T04:50:04.508Z,75.75
2022-09-06T04:51:04.482Z,75.61
2022-09-06T04:52:04.486Z,75.65
2022-09-06T04:53:04.460Z,75.88
2022-09-06T04:54:04.458Z,75.98
2022-09-06T04:55:04.446Z,76.09
2022-09-06T04:56:04.426Z,76.13
2022-09-06T04:57:04.428Z,76.15
2022-09-06T04:58:04.408Z,76.26
2022-09-06T04:59:04.394Z,76.39
2022-09-06T05:00:04.393Z,76.45
2022-09-06T05:01:04.430Z,76.57
2022-09-06T05:02:04.392Z,76.70
2022-09-06T05:03:04.341Z,76.78
2022-09-06T05:04:04.332Z,76.73
2022-09-06T05:05:04.311Z,76.70
2022-09-06T05:06:04.312Z,76.79
2022-09-06T05:07:04.313Z,76.90
2022-09-06T05:08:04.293Z,76.96
2022-09-06T05:09:04.281Z,77.04
2022-09-06T05:10:04.273Z,77.08
2022-09-06T05:11:04.253Z,77.09
2022-09-06T05:12:04.265Z,77.11
2022-09-06T05:13:04.247Z,77.35
2022-09-06T05:14:04.222Z,77.50
2022-09-06T05:15:04.199Z,77.61
2022-09-06T05:16:04.248Z,77.72
2022-09-06T05:17:04.184Z,77.94
2022-09-06T05:18:04.183Z,77.95
2022-09-06T05:19:04.162Z,77.97
2022-09-06T05:20:04.141Z,78.01
2022-09-06T05:21:04.120Z,78.21
2022-09-06T05:22:04.121Z,78.40
2022-09-06T05:23:04.131Z,78.47
2022-09-06T05:24:04.094Z,78.53
2022-09-06T05:25:04.086Z,78.66
2022-09-06T05:26:04.069Z,78.82
2022-09-06T05:27:04.066Z,78.91
2022-09-06T05:28:04.075Z,79.03
2022-09-06T05:29:04.053Z,79.08
2022-09-06T05:30:04.028Z,79.07
2022-09-06T05:31:04.026Z,79.05
2022-09-06T05:32:04.056Z,79.01
2022-09-06T05:33:04.007Z,78.94
2022-09-06T05:34:03.985Z,78.78
2022-09-06T05:35:03.967Z,78.72
2022-09-06T05:36:03.954Z,78.73
2022-09-06T05:37:03.940Z,78.58
2022-09-06T05:38:03.944Z,78.47
2022-09-06T05:39:03.947Z,78.43
2022-09-06T05:40:03.966Z,78.38
2022-09-06T05:41:03.891Z,78.29
2022-09-06T05:42:03.883Z,78.25
2022-09-06T05:43:03.878Z,78.10
2022-09-06T05:44:03.899Z,77.93
2022-09-06T05:45:03.845Z,77.84
2022-09-06T05:46:03.887Z,77.86
2022-09-06T05:47:03.828Z,77.99
2022-09-06T05:48:03.828Z,78.26
2022-09-06T05:49:03.809Z,78.57
2022-09-06T05:50:03.809Z,78.83
2022-09-06T05:51:03.783Z,78.84
2022-09-06T05:52:03.763Z,78.47
2022-09-06T05:53:03.757Z,78.04
2022-09-06T05:54:03.752Z,77.28
2022-09-06T05:55:03.771Z,77.22
2022-09-06T05:56:03.717Z,77.35
2022-09-06T05:57:03.707Z,77.40
2022-09-06T05:58:03.696Z,77.50
2022-09-06T05:59:03.693Z,77.65
2022-09-06T06:00:03.688Z,77.68
2022-09-06T06:01:03.689Z,77.76
2022-09-06T06:02:07.212Z,77.87
2022-09-06T06:03:03.630Z,77.95
2022-09-06T06:04:03.631Z,78.13
2022-09-06T06:05:03.631Z,77.99
2022-09-06T06:06:03.626Z,77.82
2022-09-06T06:07:03.608Z,77.77
2022-09-06T06:08:03.582Z,77.85
2022-09-06T06:09:03.562Z,78.07
2022-09-06T06:10:03.554Z,78.28
2022-09-06T06:11:03.561Z,78.28
2022-09-06T06:12:03.520Z,78.38
2022-09-06T06:13:03.519Z,78.35
2022-09-06T06:14:03.509Z,78.47
2022-09-06T06:15:03.508Z,78.57
2022-09-06T06:16:03.558Z,78.56
2022-09-06T06:17:03.490Z,78.44
2022-09-06T06:18:03.461Z,78.63
2022-09-06T06:19:03.444Z,78.48
2022-09-06T06:20:03.432Z,78.45
2022-09-06T06:21:03.426Z,78.38
2022-09-06T06:22:03.434Z,78.28
2022-09-06T06:23:03.397Z,78.21
2022-09-06T06:24:03.382Z,78.06
2022-09-06T06:25:03.374Z,78.23
2022-09-06T06:26:03.369Z,78.14
2022-09-06T06:27:03.373Z,77.97
2022-09-06T06:28:03.343Z,77.89
2022-09-06T06:29:03.323Z,77.79
2022-09-06T06:30:03.324Z,77.52
2022-09-06T06:31:03.301Z,76.98
2022-09-06T06:32:03.333Z,76.25
2022-09-06T06:33:03.304Z,75.31
2022-09-06T06:34:03.287Z,74.46
2022-09-06T06:35:03.273Z,73.34
2022-09-06T06:36:03.252Z,72.43
2022-09-06T06:37:03.245Z,71.82
2022-09-06T06:38:03.244Z,71.35
2022-09-06T06:39:03.222Z,70.58
2022-09-06T06:40:03.346Z,70.01
2022-09-06T06:41:06.551Z,69.37
2022-09-06T06:42:03.203Z,68.96
2022-09-06T06:43:03.188Z,68.69
2022-09-06T06:44:03.163Z,68.16
2022-09-06T06:45:03.139Z,67.54
2022-09-06T06:46:03.200Z,66.93
2022-09-06T06:47:03.147Z,66.35
2022-09-06T06:48:03.132Z,65.84
2022-09-06T06:49:03.099Z,65.57
2022-09-06T06:50:03.079Z,64.72
2022-09-06T06:51:03.084Z,64.44
2022-09-06T06:52:03.067Z,64.13
2022-09-06T06:53:03.081Z,63.12
2022-09-06T06:54:03.041Z,62.22
2022-09-06T06:55:03.030Z,61.87
2022-09-06T06:56:03.010Z,61.82
2022-09-06T06:57:03.011Z,61.20
2022-09-06T06:58:03.011Z,60.76
2022-09-06T06:59:02.982Z,59.98
2022-09-06T07:00:02.973Z,59.16
2022-09-06T07:01:03.079Z,58.78
2022-09-06T07:02:03.044Z,58.11
2022-09-06T07:03:02.957Z,58.26
2022-09-06T07:04:02.927Z,57.97
2022-09-06T07:05:02.985Z,57.56
2022-09-06T07:08:03.893Z,56.64
2022-09-06T07:09:02.872Z,56.17
2022-09-06T07:11:03.851Z,55.10
2022-09-06T07:12:02.829Z,55.27
2022-09-06T07:13:02.825Z,55.09
2022-09-06T07:14:02.827Z,54.51
2022-09-06T07:15:02.801Z,54.22
2022-09-06T07:16:02.828Z,54.45
2022-09-06T07:17:06.148Z,53.90
2022-09-06T07:18:03.767Z,54.13
2022-09-06T07:19:03.118Z,54.54
2022-09-06T07:20:18.207Z,54.61
2022-09-06T07:22:05.825Z,55.34
2022-09-06T07:25:02.697Z,55.93
2022-09-06T07:26:02.668Z,55.03
2022-09-06T07:28:05.855Z,55.55
2022-09-06T07:29:02.628Z,55.79
2022-09-06T07:30:02.661Z,55.08
2022-09-06T07:31:02.646Z,54.94
2022-09-06T07:33:03.601Z,54.60
2022-09-06T07:34:02.579Z,53.81
2022-09-06T07:35:02.603Z,54.19
2022-09-06T07:36:02.569Z,54.66
2022-09-06T07:37:02.558Z,55.02
2022-09-06T07:38:02.546Z,54.95
2022-09-06T07:39:02.530Z,55.37
2022-09-06T07:40:02.604Z,55.00
2022-09-06T07:41:02.503Z,55.31
2022-09-06T07:42:02.492Z,55.28
2022-09-06T07:43:02.492Z,55.37
2022-09-06T07:44:02.474Z,55.92
2022-09-06T07:45:02.459Z,55.55
2022-09-06T07:46:03.932Z,55.69
2022-09-06T07:48:03.425Z,55.46
2022-09-06T07:49:02.420Z,55.07
2022-09-06T07:51:03.407Z,54.65
2022-09-06T07:54:26.163Z,55.78
2022-09-06T07:55:03.339Z,55.85
2022-09-06T07:56:02.327Z,56.17
2022-09-06T07:57:02.339Z,56.33
2022-09-06T07:58:02.313Z,55.72
2022-09-06T07:59:02.300Z,55.87
2022-09-06T08:00:02.287Z,55.71
2022-09-06T08:01:02.409Z,55.54
2022-09-06T08:02:02.342Z,55.25
2022-09-06T08:03:02.247Z,55.31
2022-09-06T08:04:02.250Z,55.04
2022-09-06T08:05:02.595Z,55.00
2022-09-06T08:06:10.020Z,55.50
2022-09-06T08:09:03.207Z,55.38
2022-09-06T08:10:02.180Z,55.15
2022-09-06T08:11:02.159Z,55.33
2022-09-06T08:12:02.171Z,54.59
2022-09-06T08:13:02.138Z,54.27
2022-09-06T08:14:02.134Z,54.66
2022-09-06T08:15:02.122Z,54.55
2022-09-06T08:16:02.168Z,54.90
2022-09-06T08:17:02.124Z,54.98
2022-09-06T08:18:02.084Z,54.45
2022-09-06T08:19:02.080Z,54.52
2022-09-06T08:20:02.069Z,54.79
2022-09-06T08:21:02.056Z,54.63
2022-09-06T08:22:02.045Z,54.64
2022-09-06T08:23:02.073Z,54.07
2022-09-06T08:24:02.035Z,53.81
2022-09-06T08:25:02.008Z,53.61
2022-09-06T08:26:01.992Z,53.69
2022-09-06T08:27:01.996Z,53.62
2022-09-06T08:28:02.003Z,53.61
2022-09-06T08:29:01.969Z,54.12
2022-09-06T08:30:01.936Z,53.92
2022-09-06T08:31:01.936Z,53.95
2022-09-06T08:32:01.969Z,53.73
2022-09-06T08:33:01.934Z,54.10
2022-09-06T08:34:01.919Z,54.23
2022-09-06T08:35:01.897Z,54.95
2022-09-06T08:36:01.878Z,54.78
2022-09-06T08:37:01.876Z,54.05
2022-09-06T08:38:01.869Z,54.49
2022-09-06T08:39:01.897Z,54.52
2022-09-06T08:40:01.890Z,54.63
2022-09-06T08:41:01.830Z,54.47
2022-09-06T08:42:01.809Z,54.15
2022-09-06T08:43:01.856Z,54.45
2022-09-06T08:45:02.780Z,54.15
2022-09-06T08:46:01.774Z,54.61
2022-09-06T08:47:01.775Z,54.52
2022-09-06T08:48:01.740Z,53.86
2022-09-06T08:49:01.742Z,53.85
2022-09-06T08:50:01.738Z,54.26
2022-09-06T08:51:01.712Z,54.46
2022-09-06T08:52:01.711Z,54.61
2022-09-06T08:53:18.110Z,54.96
2022-09-06T08:54:02.681Z,54.87
2022-09-06T08:55:01.682Z,55.05
2022-09-06T08:56:01.658Z,55.04
2022-09-06T08:57:01.654Z,55.35
2022-09-06T08:58:01.636Z,55.02
2022-09-06T08:59:01.622Z,54.83
2022-09-06T09:00:01.614Z,54.85
2022-09-06T09:01:01.666Z,54.96
2022-09-06T09:02:01.642Z,54.90
2022-09-06T09:03:01.576Z,54.84
2022-09-06T09:04:01.568Z,54.48
2022-09-06T09:05:01.582Z,54.62
2022-09-06T09:06:01.560Z,54.16
2022-09-06T09:07:01.567Z,54.15
2022-09-06T09:08:01.518Z,53.83
2022-09-06T09:09:01.517Z,53.74
2022-09-06T09:10:01.516Z,53.59
2022-09-06T09:11:01.491Z,54.04
2022-09-06T09:12:01.488Z,53.68
2022-09-06T09:13:01.468Z,53.61
2022-09-06T09:14:01.454Z,53.68
2022-09-06T09:15:01.449Z,53.40
2022-09-06T09:16:01.471Z,53.95
2022-09-06T09:17:01.441Z,53.59
2022-09-06T09:18:01.418Z,54.15
2022-09-06T09:19:01.392Z,54.53
2022-09-06T09:20:01.380Z,54.16
2022-09-06T09:21:01.369Z,53.99
2022-09-06T09:22:01.379Z,53.72
2022-09-06T09:23:01.349Z,53.76
2022-09-06T09:24:01.341Z,53.50
2022-09-06T09:25:01.332Z,53.78
2022-09-06T09:26:01.331Z,54.14
2022-09-06T09:27:01.345Z,53.38
2022-09-06T09:28:01.292Z,53.09
2022-09-06T09:29:01.288Z,52.99
2022-09-06T09:31:02.298Z,53.48
2022-09-06T09:32:01.363Z,53.08
2022-09-06T09:33:01.237Z,52.74
2022-09-06T09:34:01.214Z,52.59
2022-09-06T09:35:01.237Z,53.06
2022-09-06T09:36:01.197Z,52.99
2022-09-06T09:38:07.718Z,52.48
2022-09-06T09:39:02.180Z,52.20
2022-09-06T09:40:01.241Z,51.60
2022-09-06T09:41:01.175Z,51.48
2022-09-06T09:42:01.131Z,51.38
2022-09-06T09:43:01.145Z,50.83
2022-09-06T09:44:04.455Z,50.82
2022-09-06T09:45:01.099Z,51.01
2022-09-06T09:46:01.116Z,51.27
2022-09-06T09:47:01.124Z,51.32
2022-09-06T09:48:01.078Z,51.28
2022-09-06T09:49:01.047Z,51.47
2022-09-06T09:50:01.028Z,50.80
2022-09-06T09:51:01.038Z,50.83
2022-09-06T09:52:01.019Z,50.87
2022-09-06T09:53:01.007Z,50.86
2022-09-06T09:54:01.012Z,50.42
2022-09-06T09:55:00.976Z,50.42
2022-09-06T09:56:00.970Z,50.11
2022-09-06T09:57:00.961Z,50.39
2022-09-06T09:58:00.944Z,50.07
2022-09-06T09:59:00.973Z,49.49
2022-09-06T10:00:00.926Z,49.59
2022-09-06T10:01:01.006Z,49.54
2022-09-06T10:02:00.901Z,49.59
2022-09-06T10:03:00.929Z,49.34
2022-09-06T10:05:01.861Z,49.59
2022-09-06T10:06:02.761Z,49.13
2022-09-06T10:07:08.197Z,48.68
2022-09-06T10:08:01.846Z,48.82
2022-09-06T10:09:00.849Z,48.98
2022-09-06T10:10:00.813Z,48.88
2022-09-06T10:11:00.795Z,48.75
2022-09-06T10:12:00.793Z,49.11
2022-09-06T10:13:00.783Z,49.14
2022-09-06T10:14:00.760Z,49.32
2022-09-06T10:15:04.915Z,49.00
2022-09-06T10:16:01.766Z,49.06
2022-09-06T10:17:00.732Z,49.54
2022-09-06T10:18:00.735Z,49.17
2022-09-06T10:19:00.710Z,48.50
2022-09-06T10:20:00.736Z,48.38
2022-09-06T10:21:00.689Z,48.16
2022-09-06T10:22:00.668Z,47.98
2022-09-06T10:23:00.654Z,47.97
2022-09-06T10:25:01.652Z,48.61
2022-09-06T10:26:00.629Z,48.62
2022-09-06T10:27:00.638Z,47.82
2022-09-06T10:28:10.940Z,48.15
2022-09-06T10:29:01.599Z,47.85
2022-09-06T10:30:00.585Z,47.74
2022-09-06T10:31:00.656Z,47.62
2022-09-06T10:32:00.559Z,48.19
2022-09-06T10:33:00.552Z,47.68
2022-09-06T10:34:00.540Z,47.20
2022-09-06T10:35:00.550Z,47.44
2022-09-06T10:36:00.516Z,47.60
2022-09-06T10:37:00.501Z,47.71
2022-09-06T10:38:00.488Z,47.86
2022-09-06T10:39:03.935Z,47.45
2022-09-06T10:40:00.514Z,47.67
2022-09-06T10:41:00.498Z,47.61
2022-09-06T10:42:00.468Z,47.36
2022-09-06T10:43:00.446Z,47.54
2022-09-06T10:44:00.422Z,47.62
2022-09-06T10:45:00.414Z,47.27
2022-09-06T10:46:00.417Z,47.98
2022-09-06T10:47:00.405Z,47.58
2022-09-06T10:48:00.373Z,47.40
2022-09-06T10:49:00.390Z,47.45
2022-09-06T10:50:00.357Z,47.37
2022-09-06T10:51:00.365Z,47.26
2022-09-06T10:52:00.337Z,47.54
2022-09-06T10:53:00.325Z,47.51
2022-09-06T10:54:00.313Z,47.39
2022-09-06T10:55:00.307Z,47.67
2022-09-06T10:56:01.562Z,47.44
2022-09-06T10:57:00.287Z,47.81
2022-09-06T11:00:01.235Z,47.79
2022-09-06T11:01:00.234Z,47.06
2022-09-06T11:02:00.350Z,47.01
2022-09-06T11:04:04.480Z,46.88
2022-09-06T11:06:01.194Z,46.64
2022-09-06T11:07:00.201Z,47.11
2022-09-06T11:09:01.257Z,46.81
2022-09-06T11:10:00.158Z,47.12
2022-09-06T11:11:00.141Z,46.78
2022-09-06T11:12:00.111Z,46.75
2022-09-06T11:13:00.118Z,46.74
2022-09-06T11:14:04.967Z,46.43
2022-09-06T11:15:01.083Z,46.67
2022-09-06T11:16:00.118Z,46.32
2022-09-06T11:17:00.076Z,46.34
2022-09-06T11:18:00.069Z,46.14
2022-09-06T11:19:00.031Z,45.76
2022-09-06T11:20:00.026Z,47.26
2022-09-06T11:21:00.011Z,48.28
2022-09-06T11:22:00.003Z,47.66
2022-09-06T11:23:00.001Z,48.11
2022-09-06T11:23:59.979Z,48.68
2022-09-06T11:24:59.955Z,48.84
2022-09-06T11:25:59.951Z,48.47
2022-09-06T11:26:59.942Z,47.32
2022-09-06T11:27:59.937Z,46.89
2022-09-06T11:28:59.935Z,46.42
2022-09-06T11:29:59.903Z,46.71
2022-09-06T11:30:59.945Z,46.44
2022-09-06T11:33:00.887Z,46.16
2022-09-06T11:34:01.272Z,46.17
2022-09-06T11:34:59.848Z,46.14
2022-09-06T11:35:59.839Z,45.92
2022-09-06T11:36:59.823Z,46.49
2022-09-06T11:37:59.823Z,46.67
2022-09-06T11:38:59.829Z,46.50
2022-09-06T11:41:00.784Z,47.53
2022-09-06T11:41:59.773Z,46.62
2022-09-06T11:42:59.762Z,46.83
2022-09-06T11:43:59.775Z,46.67
2022-09-06T11:44:59.730Z,46.48
2022-09-06T11:45:59.803Z,46.33
2022-09-06T11:46:59.727Z,46.49
2022-09-06T11:47:59.728Z,46.63
2022-09-06T11:48:59.710Z,46.90
2022-09-06T11:49:59.688Z,46.74
2022-09-06T11:50:59.672Z,46.56
2022-09-06T11:51:59.659Z,46.86
2022-09-06T11:52:59.654Z,46.86
2022-09-06T11:53:59.638Z,46.82
2022-09-06T11:54:59.640Z,46.96
2022-09-06T11:55:59.616Z,47.29
2022-09-06T11:56:59.591Z,47.20
2022-09-06T11:57:59.592Z,47.21
2022-09-06T11:58:59.583Z,47.53
2022-09-06T11:59:59.585Z,47.58
2022-09-06T12:00:59.554Z,47.82
2022-09-06T12:01:59.546Z,47.86
2022-09-06T12:05:00.479Z,47.49
2022-09-06T12:05:59.494Z,47.61
2022-09-06T12:06:59.484Z,47.94
2022-09-06T12:07:59.474Z,48.14
2022-09-06T12:08:59.464Z,48.05
2022-09-06T12:09:59.456Z,48.41
2022-09-06T12:10:59.460Z,48.58
2022-09-06T12:11:59.454Z,48.70
2022-09-06T12:12:59.416Z,48.37
2022-09-06T12:13:59.410Z,47.98
2022-09-06T12:14:59.397Z,47.63
2022-09-06T12:15:59.474Z,47.92
2022-09-06T12:16:59.376Z,48.24
2022-09-06T12:17:59.375Z,48.11
2022-09-06T12:18:59.351Z,47.50
2022-09-06T12:19:59.350Z,47.36
2022-09-06T12:20:59.339Z,47.69
2022-09-06T12:21:59.320Z,46.79
2022-09-06T12:22:59.297Z,46.54
2022-09-06T12:23:59.289Z,46.67
2022-09-06T12:24:59.281Z,46.83
2022-09-06T12:25:59.299Z,46.84
2022-09-06T12:26:59.249Z,47.00
2022-09-06T12:27:59.243Z,46.47
2022-09-06T12:28:59.237Z,46.28
2022-09-06T12:29:59.236Z,46.65
2022-09-06T12:30:59.267Z,46.95
2022-09-06T12:31:59.231Z,46.59
2022-09-06T12:32:59.193Z,46.56
2022-09-06T12:33:59.192Z,46.61
2022-09-06T12:36:01.352Z,46.19
2022-09-06T12:36:59.176Z,45.95
2022-09-06T12:37:59.144Z,45.44
2022-09-06T12:38:59.125Z,45.16
2022-09-06T12:39:59.169Z,45.79
2022-09-06T12:40:59.203Z,45.96
2022-09-06T12:41:59.093Z,45.36
2022-09-06T12:42:59.094Z,45.26
2022-09-06T12:43:59.065Z,44.90
2022-09-06T12:44:59.054Z,45.21
2022-09-06T12:45:59.089Z,45.16
2022-09-06T12:46:59.038Z,45.12
2022-09-06T12:47:59.047Z,45.57
2022-09-06T12:48:59.013Z,45.73
2022-09-06T12:49:59.004Z,45.24
2022-09-06T12:50:58.989Z,45.46
2022-09-06T12:51:58.982Z,46.02
2022-09-06T12:52:58.981Z,46.54
2022-09-06T12:53:58.967Z,46.20
2022-09-06T12:54:58.942Z,46.54
2022-09-06T12:55:58.936Z,45.61
2022-09-06T12:56:58.926Z,45.30
2022-09-06T12:57:58.921Z,44.71
2022-09-06T12:58:58.897Z,44.93
2022-09-06T12:59:58.889Z,45.35
2022-09-06T13:00:58.875Z,44.89
2022-09-06T13:01:58.942Z,45.16
2022-09-06T13:02:59.004Z,45.19
2022-09-06T13:03:58.849Z,45.07
2022-09-06T13:04:58.828Z,44.97
2022-09-06T13:05:58.823Z,44.65
2022-09-06T13:06:58.812Z,44.95
2022-09-06T13:07:58.817Z,45.10
2022-09-06T13:08:58.784Z,45.63
2022-09-06T13:09:58.785Z,45.98
2022-09-06T13:10:58.761Z,46.75
2022-09-06T13:11:58.763Z,46.76
2022-09-06T13:12:58.743Z,46.92
2022-09-06T13:13:58.735Z,46.90
2022-09-06T13:14:58.722Z,47.06
2022-09-06T13:15:58.747Z,47.02
2022-09-06T13:16:58.696Z,47.17
2022-09-06T13:17:58.705Z,47.26
2022-09-06T13:18:58.689Z,47.50
2022-09-06T13:19:58.665Z,47.31
2022-09-06T13:20:58.645Z,46.54